Terminal Aerodrome Forecast
Issued by NWS Brownsville, TX

Home | Current Version | Previous Version | Text Only | Print | Product List | Glossary On
Versions: 1 2 3 4 5 6 7 8 9 10 11 12 13 14 15 16 17 18 19 20 21 22 23 24 25 26
000
FTUS44 KBRO 130500
TAFMFE
TAF
KMFE 130520Z 1306/1406 13006KT P6SM SKC
      TEMPO 1309/1312 2SM BR
     FM131600 13012KT P6SM FEW050
     FM140100 12004KT P6SM SKC=

USA.gov is the U.S. government's official web portal to all federal, state and local government web resources and services.